Time;durP1;ratioP1;P1;durP2;ratioP2;P2;SDS_P1;SDS_P2;PMS_P1;PMS_P2;Temp;Humidity;BMP_temperature;BMP_pressure;BME280_temperature;BME280_humidity;BME280_pressure;Samples;Min_cycle;Max_cycle;Signal;HPM_P1;HPM_P2
2021/03/12 00:02:04;;;;;;;1.05;0.40;;;;;;;7.43;68.44;98053.09;4982704;28;20031;-74
2021/03/12 00:04:30;;;;;;;6.28;0.57;;;;;;;7.60;68.43;98085.88;4998200;28;20029;-74
2021/03/12 00:06:55;;;;;;;3.30;0.60;;;;;;;7.40;68.21;98080.41;5018085;28;20049;-74
2021/03/12 00:09:20;;;;;;;3.97;0.75;;;;;;;7.47;68.30;98076.72;4996673;28;20061;-73
2021/03/12 00:11:46;;;;;;;3.42;0.70;;;;;;;7.47;68.81;98087.50;5007683;28;20065;-74
2021/03/12 00:14:11;;;;;;;2.88;0.47;;;;;;;7.42;68.85;98091.81;5000628;28;20026;-74
2021/03/12 00:16:37;;;;;;;2.25;0.50;;;;;;;7.14;68.82;98059.59;4971134;28;20026;-75
2021/03/12 00:19:03;;;;;;;2.85;0.55;;;;;;;7.28;69.50;98082.00;4977597;28;20034;-75
2021/03/12 00:21:28;;;;;;;3.22;0.47;;;;;;;7.23;68.38;98074.53;4984711;28;20023;-74
2021/03/12 00:23:53;;;;;;;4.70;0.65;;;;;;;7.11;68.93;98071.59;5002402;28;20496;-75
2021/03/12 00:26:18;;;;;;;6.18;0.70;;;;;;;7.18;68.59;98083.22;5000410;28;20049;-74
2021/03/12 00:28:44;;;;;;;5.10;0.50;;;;;;;6.91;68.63;98070.66;4999803;28;20030;-73
2021/03/12 00:31:09;;;;;;;2.22;0.50;;;;;;;6.97;68.71;98065.31;5000729;28;20034;-74
2021/03/12 00:33:35;;;;;;;4.15;0.73;;;;;;;6.96;68.38;98078.94;4991672;28;20030;-74
2021/03/12 00:36:01;;;;;;;5.75;0.52;;;;;;;6.94;68.90;98087.25;5000994;28;20022;-74
2021/03/12 00:38:27;;;;;;;4.88;0.60;;;;;;;7.06;68.72;98114.38;4983038;28;20033;-74
2021/03/12 00:40:55;;;;;;;1.20;0.22;;;;;;;7.00;69.11;98091.81;5002699;28;20030;-73
2021/03/12 00:43:21;;;;;;;2.80;0.40;;;;;;;7.03;68.87;98063.69;4995233;28;20041;-74
2021/03/12 00:45:59;;;;;;;2.80;0.50;;;;;;;7.05;68.66;98085.00;4999562;28;20068;-74
2021/03/12 00:48:25;;;;;;;1.55;0.40;;;;;;;7.18;68.90;98103.91;5002664;28;20032;-73
2021/03/12 00:50:51;;;;;;;5.68;0.52;;;;;;;7.19;68.71;98086.75;5004431;28;20034;-71
2021/03/12 00:53:16;;;;;;;4.05;0.47;;;;;;;7.16;67.99;98090.66;4997127;28;20030;-73
2021/03/12 00:55:42;;;;;;;2.92;1.02;;;;;;;7.19;68.20;98127.91;5002094;28;20042;-74
2021/03/12 00:58:09;;;;;;;3.25;0.50;;;;;;;6.68;73.04;98163.16;4982232;28;20027;-74
2021/03/12 01:00:36;;;;;;;2.30;0.38;;;;;;;4.17;78.88;98192.56;5012727;28;20030;-75
2021/03/12 01:03:02;;;;;;;3.35;0.38;;;;;;;3.55;83.25;98213.97;5015642;28;20030;-74
2021/03/12 01:05:29;;;;;;;0.63;0.20;;;;;;;3.38;82.95;98167.75;4997956;28;20044;-74
2021/03/12 01:07:55;;;;;;;2.30;0.60;;;;;;;3.82;84.22;98238.59;5003179;28;20046;-73
2021/03/12 01:10:22;;;;;;;1.58;0.25;;;;;;;3.69;84.87;98213.25;4987057;28;20018;-74
2021/03/12 01:12:47;;;;;;;2.97;0.30;;;;;;;3.44;84.97;98167.03;5003620;28;20033;-74
2021/03/12 01:15:16;;;;;;;0.65;0.30;;;;;;;3.68;85.16;98216.91;5003014;28;20082;-73
2021/03/12 01:17:41;;;;;;;1.15;0.30;;;;;;;3.91;84.04;98226.88;4984846;28;20121;-74
2021/03/12 01:20:11;;;;;;;1.92;0.40;;;;;;;3.90;85.39;98247.44;5010055;28;20054;-73
2021/03/12 01:22:36;;;;;;;0.85;0.30;;;;;;;3.76;85.38;98229.44;4994779;28;20039;-74
2021/03/12 01:25:06;;;;;;;4.10;0.50;;;;;;;3.65;85.30;98211.91;4990912;28;20053;-74
2021/03/12 01:27:38;;;;;;;0.35;0.22;;;;;;;3.68;85.60;98235.66;4995130;28;20032;-73
2021/03/12 01:30:31;;;;;;;0.95;0.30;;;;;;;3.70;85.80;98241.66;5007138;28;20029;-72
2021/03/12 01:32:57;;;;;;;2.05;0.30;;;;;;;3.64;85.85;98222.78;5002022;28;20510;-74
2021/03/12 01:35:22;;;;;;;1.33;0.20;;;;;;;3.64;85.91;98233.47;4997628;28;20022;-74
2021/03/12 01:37:47;;;;;;;1.58;0.38;;;;;;;3.77;85.92;98268.53;4986317;28;20030;-72
2021/03/12 01:40:16;;;;;;;2.17;0.20;;;;;;;3.81;85.46;98248.47;4984178;28;20881;-74
2021/03/12 01:42:41;;;;;;;1.90;0.52;;;;;;;3.92;84.63;98241.91;5000291;28;20491;-74
2021/03/12 01:45:11;;;;;;;6.25;1.10;;;;;;;4.06;84.96;98257.22;4999942;28;20027;-74
2021/03/12 01:47:36;;;;;;;4.80;0.68;;;;;;;4.18;84.01;98245.09;5015782;28;20026;-74
2021/03/12 01:50:04;;;;;;;1.35;0.90;;;;;;;4.07;84.40;98216.06;5001500;28;20027;-74
2021/03/12 01:52:29;;;;;;;1.40;0.60;;;;;;;4.07;84.29;98247.34;4989408;28;20026;-73
2021/03/12 01:54:55;;;;;;;4.25;0.73;;;;;;;3.95;84.30;98209.44;5001263;28;20388;-74
2021/03/12 01:57:20;;;;;;;3.00;0.70;;;;;;;4.01;84.27;98238.19;4984256;28;20439;-74
2021/03/12 01:59:46;;;;;;;1.00;0.60;;;;;;;3.93;84.53;98230.19;5001469;28;20026;-74
2021/03/12 02:02:11;;;;;;;2.03;0.60;;;;;;;3.65;84.31;98193.19;4982285;28;20372;-74
2021/03/12 02:04:36;;;;;;;1.25;0.70;;;;;;;3.77;84.49;98203.50;5003828;28;20022;-73
2021/03/12 02:07:02;;;;;;;0.77;0.50;;;;;;;4.11;83.06;98248.66;4997695;28;20026;-73
2021/03/12 02:09:27;;;;;;;3.20;0.60;;;;;;;4.05;82.88;98223.41;4978932;28;20034;-74
2021/03/12 02:12:12;;;;;;;2.67;0.98;;;;;;;4.23;82.59;98273.19;4978622;28;20025;-74
2021/03/12 02:15:04;;;;;;;3.70;0.90;;;;;;;4.21;82.77;98285.91;5013934;28;20511;-74
2021/03/12 02:17:39;;;;;;;3.35;0.68;;;;;;;4.20;82.61;98286.94;5007185;28;20042;-74
2021/03/12 02:20:33;;;;;;;10.70;1.40;;;;;;;4.06;82.57;98262.59;4997901;28;20030;-73
2021/03/12 02:23:11;;;;;;;2.30;0.98;;;;;;;3.87;83.71;98254.97;4992676;28;20037;-73
2021/03/12 02:25:41;;;;;;;1.60;0.85;;;;;;;3.93;83.70;98267.66;5017905;28;20025;-74
2021/03/12 02:28:06;;;;;;;3.22;0.70;;;;;;;3.89;83.33;98269.84;5005621;28;20053;-74
2021/03/12 02:30:32;;;;;;;1.60;0.63;;;;;;;3.78;83.10;98242.66;4997085;28;20034;-74
2021/03/12 02:32:59;;;;;;;4.45;0.75;;;;;;;3.81;83.30;98253.81;4996861;28;20030;-74
2021/03/12 02:35:24;;;;;;;3.03;0.75;;;;;;;3.67;82.77;98227.81;4979527;28;20026;-74
2021/03/12 02:37:52;;;;;;;6.90;0.90;;;;;;;3.74;82.70;98255.50;4998441;28;20034;-74
2021/03/12 02:40:19;;;;;;;3.30;0.50;;;;;;;3.64;83.35;98245.03;4997860;28;20026;-74
2021/03/12 02:42:46;;;;;;;4.20;0.90;;;;;;;3.59;83.16;98250.06;4997175;28;20022;-74
2021/03/12 02:45:12;;;;;;;4.93;1.00;;;;;;;3.75;83.28;98270.59;4980150;28;20022;-73
2021/03/12 02:47:38;;;;;;;4.07;0.77;;;;;;;3.78;82.95;98280.94;4984554;28;20022;-74
2021/03/12 02:50:06;;;;;;;4.97;0.90;;;;;;;3.79;82.52;98279.09;4996248;28;20030;-72
2021/03/12 02:52:32;;;;;;;5.80;0.70;;;;;;;3.83;83.27;98272.38;4996395;28;20041;-73
2021/03/12 02:54:57;;;;;;;2.72;0.73;;;;;;;3.88;81.74;98253.97;5001073;28;20026;-74
2021/03/12 02:57:24;;;;;;;2.60;0.70;;;;;;;4.15;81.80;98279.44;5008777;28;20022;-74
2021/03/12 02:59:54;;;;;;;2.22;0.50;;;;;;;4.33;80.94;98269.28;4999762;28;20026;-74
2021/03/12 03:02:24;;;;;;;1.55;0.50;;;;;;;4.30;80.97;98258.09;4985905;28;20053;-74
2021/03/12 03:04:52;;;;;;;1.98;0.65;;;;;;;4.46;80.09;98271.38;4980007;28;20027;-74
2021/03/12 03:07:19;;;;;;;1.35;0.50;;;;;;;4.42;80.05;98261.19;4979947;28;20096;-74
2021/03/12 03:09:45;;;;;;;3.72;0.68;;;;;;;4.36;81.60;98270.78;5003359;28;20049;-74
2021/03/12 03:12:15;;;;;;;3.92;0.70;;;;;;;4.39;81.30;98257.03;4980665;28;20034;-74
2021/03/12 03:14:42;;;;;;;5.65;0.60;;;;;;;4.52;80.01;98276.03;4979689;28;20129;-74
2021/03/12 03:17:09;;;;;;;4.63;0.60;;;;;;;4.56;79.48;98274.66;4996302;28;20026;-74
2021/03/12 03:19:36;;;;;;;5.05;1.27;;;;;;;4.73;79.03;98295.97;4993156;28;20476;-73
2021/03/12 03:22:03;;;;;;;2.97;1.10;;;;;;;4.63;78.35;98255.19;5000800;28;20030;-74
2021/03/12 03:24:31;;;;;;;2.70;0.70;;;;;;;4.81;78.48;98277.16;5009496;28;20030;-73
2021/03/12 03:26:56;;;;;;;4.28;1.10;;;;;;;4.85;78.50;98283.84;4997899;28;20109;-73
2021/03/12 03:29:23;;;;;;;3.20;0.80;;;;;;;5.08;76.22;98272.22;5010382;28;20077;-74
2021/03/12 03:31:49;;;;;;;3.25;0.50;;;;;;;5.31;74.88;98278.38;4996054;28;20041;-73
2021/03/12 03:34:14;;;;;;;4.78;0.45;;;;;;;5.37;74.94;98283.03;5015248;28;20466;-74
2021/03/12 03:36:40;;;;;;;1.92;0.60;;;;;;;5.44;74.57;98299.22;4995298;28;20471;-74
2021/03/12 03:39:09;;;;;;;4.25;0.63;;;;;;;5.53;74.73;98313.38;4983598;28;20109;-74
2021/03/12 03:41:43;;;;;;;2.65;0.63;;;;;;;5.44;76.43;98321.50;4979338;28;20514;-74
2021/03/12 03:44:13;;;;;;;2.40;0.50;;;;;;;5.06;79.19;98326.06;4996816;28;20030;-74
2021/03/12 03:46:42;;;;;;;4.55;0.95;;;;;;;4.56;81.01;98317.53;5002890;28;20026;-73
2021/03/12 03:49:09;;;;;;;2.65;0.68;;;;;;;4.53;82.32;98360.75;4999857;28;20030;-74
2021/03/12 03:51:38;;;;;;;2.63;0.40;;;;;;;4.28;84.18;98357.34;4998055;28;20556;-73
2021/03/12 03:54:05;;;;;;;0.50;0.32;;;;;;;4.09;84.50;98363.13;4985237;28;20026;-74
2021/03/12 03:56:31;;;;;;;1.42;0.60;;;;;;;3.94;84.30;98347.75;5013692;23;20049;-78
2021/03/12 03:58:58;;;;;;;1.38;0.98;;;;;;;3.95;84.81;98370.00;5038194;28;20025;-78
2021/03/12 04:01:24;;;;;;;2.20;1.00;;;;;;;3.88;85.29;98355.66;5056089;28;20155;-78
2021/03/12 04:03:52;;;;;;;3.90;0.90;;;;;;;3.88;84.55;98356.50;5048943;28;20032;-78
2021/03/12 04:06:18;;;;;;;2.90;1.25;;;;;;;3.88;84.71;98355.66;5068492;28;20170;-77
2021/03/12 04:08:43;;;;;;;3.55;0.85;;;;;;;3.79;84.54;98346.81;5037960;28;20053;-77
2021/03/12 04:11:10;;;;;;;4.90;0.90;;;;;;;3.60;85.35;98353.38;5037830;28;20025;-77
2021/03/12 04:13:36;;;;;;;1.38;0.60;;;;;;;3.55;84.99;98341.53;5055699;28;20024;-77
2021/03/12 04:16:02;;;;;;;2.53;0.93;;;;;;;3.71;84.39;98376.25;5057451;28;20032;-77
2021/03/12 04:18:28;;;;;;;2.40;0.98;;;;;;;3.69;84.30;98372.91;5052025;28;20544;-73
2021/03/12 04:20:53;;;;;;;2.15;0.73;;;;;;;3.79;84.31;98394.97;5053601;28;20485;-73
2021/03/12 04:23:20;;;;;;;4.60;1.10;;;;;;;3.89;83.84;98390.25;5054477;28;20025;-73
2021/03/12 04:25:46;;;;;;;3.70;1.17;;;;;;;4.05;82.83;98397.41;5054098;28;20025;-72
2021/03/12 04:28:12;;;;;;;7.97;0.88;;;;;;;4.10;81.74;98389.69;5054409;28;20445;-73
2021/03/12 04:30:37;;;;;;;6.75;0.90;;;;;;;4.23;80.78;98404.41;5037715;28;20025;-73
2021/03/12 04:33:02;;;;;;;1.95;0.60;;;;;;;4.29;80.87;98406.38;5054490;28;20025;-74
2021/03/12 04:35:28;;;;;;;2.45;1.10;;;;;;;4.41;79.39;98393.47;5048067;28;20107;-74
2021/03/12 04:37:54;;;;;;;2.92;0.80;;;;;;;4.47;78.28;98414.19;5049377;28;20029;-73
2021/03/12 04:40:20;;;;;;;3.80;0.50;;;;;;;4.61;77.46;98422.31;5049810;28;20032;-75
2021/03/12 04:42:46;;;;;;;3.13;0.70;;;;;;;4.65;75.42;98405.91;5031814;28;20033;-74
2021/03/12 04:45:12;;;;;;;4.43;0.52;;;;;;;4.82;75.06;98402.09;5054219;28;20021;-73
2021/03/12 04:47:39;;;;;;;5.15;0.63;;;;;;;4.88;73.26;98412.13;5055018;28;20032;-73
2021/03/12 04:50:08;;;;;;;5.28;0.70;;;;;;;4.93;70.98;98408.94;5055982;28;20026;-75
2021/03/12 04:52:34;;;;;;;;;;;;;;;5.05;70.78;98419.03;5055960;28;20535;-74
2021/03/12 04:55:00;;;;;;;7.35;1.17;;;;;;;5.03;70.03;98413.03;5074725;28;19913;-74
2021/03/12 04:57:25;;;;;;;7.15;0.70;;;;;;;5.00;69.79;98393.78;5056072;28;20032;-74
2021/03/12 04:59:54;;;;;;;2.58;0.70;;;;;;;4.95;70.40;98404.19;5051863;28;20025;-72
2021/03/12 05:02:19;;;;;;;2.47;0.60;;;;;;;4.84;70.39;98421.53;5055590;28;20033;-73
2021/03/12 05:04:49;;;;;;;4.65;0.60;;;;;;;4.89;69.95;98415.63;5054632;28;20032;-73
2021/03/12 05:07:25;;;;;;;5.82;0.98;;;;;;;4.80;70.46;98421.03;5052077;28;20060;-74
2021/03/12 05:09:51;;;;;;;4.68;0.70;;;;;;;4.80;70.40;98414.84;5036920;28;20028;-73
2021/03/12 05:12:16;;;;;;;8.07;1.00;;;;;;;4.96;68.80;98430.00;5054595;28;20021;-73
2021/03/12 05:14:41;;;;;;;5.15;0.43;;;;;;;4.93;69.60;98415.13;5053747;28;20052;-73
2021/03/12 05:17:07;;;;;;;2.10;0.30;;;;;;;4.86;69.41;98416.81;5049759;28;20040;-73
2021/03/12 05:19:32;;;;;;;4.80;0.77;;;;;;;4.83;69.06;98426.06;5051414;28;20120;-73
2021/03/12 05:21:59;;;;;;;8.25;1.20;;;;;;;4.83;68.41;98407.28;5045811;28;20036;-73
2021/03/12 05:24:24;;;;;;;6.53;0.90;;;;;;;4.93;69.11;98444.59;5035944;28;20024;-75
2021/03/12 05:26:50;;;;;;;4.70;0.65;;;;;;;4.88;69.96;98441.63;5037486;28;20036;-74
2021/03/12 05:29:16;;;;;;;3.67;0.93;;;;;;;4.82;69.77;98434.25;5050396;28;20060;-74
2021/03/12 05:31:41;;;;;;;5.85;0.93;;;;;;;4.91;69.36;98449.28;5043020;28;20033;-74
2021/03/12 05:34:06;;;;;;;4.25;0.60;;;;;;;4.93;69.80;98443.78;5042831;28;20108;-75
2021/03/12 05:36:31;;;;;;;4.60;0.60;;;;;;;4.95;70.81;98456.00;5053698;28;20037;-74
2021/03/12 05:38:57;;;;;;;7.15;0.93;;;;;;;4.88;70.07;98441.63;5047680;28;20036;-74
2021/03/12 05:41:22;;;;;;;3.50;0.70;;;;;;;4.92;69.57;98444.75;5033668;28;20036;-72
2021/03/12 05:43:48;;;;;;;3.88;0.70;;;;;;;4.88;69.71;98449.66;5024140;28;20028;-73
2021/03/12 05:46:14;;;;;;;1.73;0.60;;;;;;;4.80;70.23;98447.84;5055094;28;20120;-76
2021/03/12 05:48:41;;;;;;;11.38;1.00;;;;;;;4.82;70.34;98461.06;5056386;28;20029;-74
2021/03/12 05:51:07;;;;;;;5.45;0.63;;;;;;;4.77;69.89;98444.69;5053844;28;20051;-76
2021/03/12 05:53:32;;;;;;;3.47;0.40;;;;;;;4.89;69.74;98454.00;5053872;28;20033;-75
2021/03/12 05:55:58;;;;;;;2.83;0.88;;;;;;;4.87;69.32;98464.06;5052877;28;20054;-75
2021/03/12 05:58:23;;;;;;;4.32;0.47;;;;;;;4.86;69.63;98451.66;5046803;28;20021;-75
2021/03/12 06:00:49;;;;;;;5.45;1.20;;;;;;;4.98;69.70;98457.47;5035121;28;20027;-76
2021/03/12 06:03:15;;;;;;;7.75;0.65;;;;;;;4.94;69.62;98445.44;5033433;28;20021;-76
2021/03/12 06:05:44;;;;;;;3.63;0.50;;;;;;;5.06;68.95;98446.72;5042825;28;20386;-75
2021/03/12 06:08:10;;;;;;;6.55;1.10;;;;;;;5.03;68.91;98447.03;5041140;28;20017;-76
2021/03/12 06:10:35;;;;;;;7.18;1.13;;;;;;;5.05;69.00;98455.75;5032203;28;20036;-76
2021/03/12 06:13:01;;;;;;;5.85;0.80;;;;;;;5.06;69.49;98454.75;5032228;28;20024;-77
2021/03/12 06:15:38;;;;;;;2.25;0.70;;;;;;;5.15;69.30;98463.56;5050512;28;20484;-74
2021/03/12 06:18:25;;;;;;;1.50;0.40;;;;;;;5.12;70.40;98458.56;5046349;28;20033;-76
2021/03/12 06:20:51;;;;;;;4.05;0.70;;;;;;;5.04;70.26;98446.88;5048482;28;20032;-77
2021/03/12 06:23:43;;;;;;;2.97;0.57;;;;;;;4.91;71.29;98446.63;5036174;28;20024;-77
2021/03/12 06:26:08;;;;;;;5.78;0.75;;;;;;;4.91;70.92;98454.66;5041084;28;20112;-76
2021/03/12 06:28:34;;;;;;;2.70;0.50;;;;;;;4.92;71.52;98445.59;5049347;28;20043;-77
2021/03/12 06:30:59;;;;;;;10.60;1.48;;;;;;;4.95;70.97;98452.44;5054005;28;20152;-78
2021/03/12 06:33:33;;;;;;;8.15;0.70;;;;;;;5.01;70.71;98454.44;5053202;28;20371;-76
2021/03/12 06:36:01;;;;;;;4.68;0.60;;;;;;;4.96;71.16;98457.66;5051764;28;20051;-76
2021/03/12 06:38:26;;;;;;;4.63;0.90;;;;;;;4.89;70.80;98467.41;5053687;28;20029;-75
2021/03/12 06:40:52;;;;;;;4.22;0.65;;;;;;;4.92;71.45;98467.03;5035338;28;20067;-75
2021/03/12 06:43:18;;;;;;;2.17;0.47;;;;;;;4.86;70.42;98466.91;5035634;28;20039;-74
2021/03/12 06:45:47;;;;;;;11.90;1.10;;;;;;;4.89;70.72;98482.66;5052174;28;20032;-76
2021/03/12 06:48:31;;;;;;;7.78;0.93;;;;;;;4.94;70.87;98483.78;5044545;28;20075;-77
2021/03/12 06:51:01;;;;;;;4.03;0.68;;;;;;;5.02;69.82;98489.09;5040774;28;20021;-77
2021/03/12 06:53:36;;;;;;;4.20;0.73;;;;;;;5.08;70.22;98500.97;5030028;28;20086;-74
2021/03/12 06:56:04;;;;;;;2.67;0.60;;;;;;;5.07;70.49;98507.34;5052330;28;20036;-73
2021/03/12 06:58:31;;;;;;;5.40;0.60;;;;;;;5.13;70.56;98513.84;5053194;28;20501;-74
2021/03/12 07:00:57;;;;;;;2.88;0.63;;;;;;;5.12;70.47;98512.19;5068070;28;20044;-73
2021/03/12 07:03:24;;;;;;;5.20;0.50;;;;;;;5.17;70.78;98507.16;5068605;28;20017;-74
2021/03/12 07:06:19;;;;;;;2.88;0.60;;;;;;;5.10;72.02;98503.50;5055251;28;20029;-74
2021/03/12 07:08:45;;;;;;;3.17;0.70;;;;;;;5.17;72.12;98532.09;5073848;28;20518;-71
2021/03/12 07:11:21;;;;;;;2.60;0.52;;;;;;;5.10;72.18;98532.97;5070165;28;20048;-74
2021/03/12 07:13:49;;;;;;;4.63;0.73;;;;;;;5.12;72.16;98542.53;5070950;28;20039;-74
2021/03/12 07:16:16;;;;;;;3.97;0.95;;;;;;;5.33;72.55;98547.28;5072428;28;20029;-73
2021/03/12 07:18:42;;;;;;;3.25;0.40;;;;;;;5.40;71.04;98545.56;5069855;28;20025;-72
2021/03/12 07:21:08;;;;;;;3.55;0.77;;;;;;;6.14;69.83;98561.19;5069914;28;20044;-75
2021/03/12 07:23:40;;;;;;;4.22;0.80;;;;;;;5.62;70.96;98573.44;5072489;28;20032;-73
2021/03/12 07:26:08;;;;;;;3.53;0.75;;;;;;;5.44;71.68;98568.34;5072707;28;20035;-73
2021/03/12 07:28:35;;;;;;;1.27;0.52;;;;;;;5.30;73.07;98581.69;5072208;28;20029;-73
2021/03/12 07:31:03;;;;;;;3.55;1.00;;;;;;;5.21;73.89;98572.81;5054637;28;20025;-72
2021/03/12 07:33:31;;;;;;;3.53;0.55;;;;;;;5.12;74.21;98580.06;5072844;28;20021;-72
2021/03/12 07:35:58;;;;;;;4.67;0.97;;;;;;;4.98;75.45;98595.03;5071619;28;20021;-73
2021/03/12 07:38:25;;;;;;;2.72;0.88;;;;;;;4.82;75.28;98562.91;5064104;28;20045;-72
2021/03/12 07:40:53;;;;;;;2.60;0.85;;;;;;;4.77;76.78;98582.22;5048420;28;20043;-72
2021/03/12 07:43:19;;;;;;;1.88;0.20;;;;;;;4.70;76.35;98581.22;5061239;28;20029;-72
2021/03/12 07:45:45;;;;;;;4.03;0.47;;;;;;;4.81;76.39;98577.31;5072156;28;20214;-73
2021/03/12 07:48:11;;;;;;;4.10;0.60;;;;;;;4.91;74.84;98561.88;5071131;28;20017;-72
2021/03/12 07:50:38;;;;;;;2.20;0.55;;;;;;;5.17;74.11;98572.34;5070837;28;20044;-73
2021/03/12 07:53:06;;;;;;;1.45;0.40;;;;;;;5.33;73.32;98565.22;5068767;28;20032;-73
2021/03/12 07:55:37;;;;;;;3.35;0.52;;;;;;;5.59;72.96;98579.16;5062994;28;20028;-73
2021/03/12 07:58:10;;;;;;;1.98;0.70;;;;;;;5.46;72.56;98579.72;5070629;28;20025;-73
2021/03/12 08:00:57;;;;;;;1.08;0.40;;;;;;;5.54;72.69;98589.59;5064218;28;20193;-72
2021/03/12 08:03:30;;;;;;;2.35;0.73;;;;;;;5.63;72.37;98587.69;5068474;28;20083;-72
2021/03/12 08:05:55;;;;;;;3.63;0.77;;;;;;;5.52;73.12;98590.78;5065323;28;20012;-72
2021/03/12 08:08:38;;;;;;;5.22;0.70;;;;;;;5.75;71.87;98597.00;5056994;28;20037;-73
2021/03/12 08:11:32;;;;;;;3.50;0.55;;;;;;;5.85;72.80;98592.25;5052156;28;20017;-72
2021/03/12 08:14:17;;;;;;;1.05;0.38;;;;;;;5.94;72.49;98601.09;5045542;28;20027;-72
2021/03/12 08:17:04;;;;;;;3.80;0.60;;;;;;;6.84;69.76;98597.63;5032144;28;20053;-72
2021/03/12 08:19:34;;;;;;;4.93;0.75;;;;;;;6.91;68.91;98600.41;5038819;28;20044;-73
2021/03/12 08:22:01;;;;;;;5.00;0.85;;;;;;;6.72;69.83;98597.25;5041983;28;20025;-72
2021/03/12 08:24:57;;;;;;;2.67;0.55;;;;;;;8.75;65.26;98602.66;5043109;28;20039;-73
2021/03/12 08:27:40;;;;;;;3.20;0.35;;;;;;;12.66;54.21;98585.56;5027262;28;20037;-72
2021/03/12 08:30:29;;;;;;;0.88;0.43;;;;;;;12.75;52.79;98586.09;5044365;28;20075;-73
2021/03/12 08:32:56;;;;;;;0.55;0.30;;;;;;;14.28;49.98;98567.94;5049500;28;20491;-73
2021/03/12 08:35:38;;;;;;;2.55;0.57;;;;;;;15.44;46.42;98571.78;5029799;28;20418;-72
2021/03/12 08:38:28;;;;;;;1.42;0.60;;;;;;;14.75;47.85;98581.66;5047217;28;20037;-72
2021/03/12 08:41:13;;;;;;;4.38;0.70;;;;;;;13.18;51.38;98580.69;5048530;28;20027;-72
2021/03/12 08:43:48;;;;;;;3.30;0.65;;;;;;;12.16;53.36;98578.22;5046782;28;20037;-72
2021/03/12 08:46:16;;;;;;;5.38;0.90;;;;;;;11.09;56.36;98582.44;5044693;28;20079;-73
2021/03/12 08:48:43;;;;;;;5.90;1.20;;;;;;;11.02;56.88;98570.78;5046336;28;20059;-71
2021/03/12 08:51:11;;;;;;;4.68;0.80;;;;;;;11.84;55.01;98578.19;5049722;28;20116;-74
2021/03/12 08:53:39;;;;;;;3.00;0.70;;;;;;;11.88;55.53;98573.19;5057916;28;20071;-72
2021/03/12 08:56:07;;;;;;;5.22;0.82;;;;;;;11.31;56.43;98564.03;5033709;28;20033;-72
2021/03/12 08:58:35;;;;;;;5.05;0.93;;;;;;;11.24;56.95;98566.78;5058913;28;20146;-73
2021/03/12 09:01:10;;;;;;;5.03;1.20;;;;;;;10.86;56.72;98542.31;5042484;28;20020;-73
2021/03/12 09:03:35;;;;;;;4.45;1.20;;;;;;;10.71;58.26;98565.00;5052972;28;20028;-72
2021/03/12 09:06:07;;;;;;;6.22;1.75;;;;;;;10.59;58.86;98558.59;5060114;28;20028;-72
2021/03/12 09:08:36;;;;;;;5.57;1.00;;;;;;;11.41;55.06;98553.59;5065326;28;20115;-73
2021/03/12 09:11:03;;;;;;;4.88;1.05;;;;;;;11.01;57.09;98564.56;5063811;28;20103;-73
2021/03/12 09:13:37;;;;;;;3.40;1.05;;;;;;;10.10;57.99;98548.97;5055517;28;20039;-73
2021/03/12 09:16:04;;;;;;;4.07;0.70;;;;;;;9.52;59.46;98554.88;5059253;28;20033;-76
2021/03/12 09:18:31;;;;;;;5.55;0.95;;;;;;;8.87;61.28;98567.84;5060393;28;20447;-74
2021/03/12 09:20:59;;;;;;;3.85;0.57;;;;;;;8.72;62.19;98559.91;5063853;28;20020;-75
2021/03/12 09:23:47;;;;;;;4.45;0.82;;;;;;;8.84;62.07;98576.34;5066742;28;20025;-72
2021/03/12 09:26:16;;;;;;;3.42;0.82;;;;;;;8.97;61.45;98567.50;5052196;28;20112;-74
2021/03/12 09:28:43;;;;;;;3.97;0.70;;;;;;;8.18;63.98;98582.03;5053511;28;20376;-74
2021/03/12 09:31:09;;;;;;;3.70;0.55;;;;;;;7.88;68.65;98584.00;5054246;28;20029;-74
2021/03/12 09:33:36;;;;;;;2.90;0.68;;;;;;;7.23;70.22;98578.53;5054370;28;20021;-75
2021/03/12 09:36:22;;;;;;;3.65;0.68;;;;;;;6.93;72.46;98585.75;5033082;28;20124;-75
2021/03/12 09:38:48;;;;;;;1.55;0.47;;;;;;;7.17;68.92;98575.72;5035744;28;20390;-75
2021/03/12 09:41:22;;;;;;;4.57;0.70;;;;;;;7.49;68.49;98576.31;5050305;28;20032;-75
2021/03/12 09:43:57;;;;;;;4.07;0.43;;;;;;;8.80;66.28;98572.38;5030896;28;20020;-75
2021/03/12 09:46:27;;;;;;;2.25;0.43;;;;;;;10.20;61.18;98557.50;5053275;28;20024;-74
2021/03/12 09:48:53;;;;;;;3.67;0.95;;;;;;;8.80;61.02;98548.09;5051818;28;20478;-74
2021/03/12 09:51:19;;;;;;;7.80;0.75;;;;;;;9.21;62.20;98533.78;5055978;28;20040;-74
2021/03/12 09:53:46;;;;;;;6.22;1.00;;;;;;;9.87;60.49;98531.25;5066842;28;20016;-74
2021/03/12 09:56:13;;;;;;;2.75;0.60;;;;;;;11.32;56.54;98525.91;5068201;28;20021;-75
2021/03/12 09:58:38;;;;;;;6.10;0.80;;;;;;;10.06;57.18;98542.31;5053515;28;20021;-75
2021/03/12 10:01:18;;;;;;;2.67;0.68;;;;;;;11.43;53.55;98546.06;5034036;28;20548;-75
2021/03/12 10:03:44;;;;;;;1.58;0.63;;;;;;;12.57;51.40;98530.72;5053542;28;20021;-76
2021/03/12 10:06:11;;;;;;;2.35;0.55;;;;;;;11.65;53.60;98526.78;5065617;28;20021;-75
2021/03/12 10:09:03;;;;;;;3.47;0.60;;;;;;;11.69;51.33;98523.44;5073835;28;20103;-75
2021/03/12 10:11:47;;;;;;;3.78;0.65;;;;;;;11.32;53.56;98549.47;5059548;28;20100;-76
2021/03/12 10:14:34;;;;;;;3.20;0.50;;;;;;;10.21;54.11;98548.34;5034618;28;20052;-75
2021/03/12 10:17:28;;;;;;;3.83;0.75;;;;;;;11.24;51.69;98528.88;5052291;28;20044;-75
2021/03/12 10:19:57;;;;;;;3.03;0.70;;;;;;;10.99;52.06;98527.91;5047395;28;20433;-75
2021/03/12 10:22:37;;;;;;;3.28;0.80;;;;;;;11.19;51.89;98521.38;5053356;28;20036;-75
2021/03/12 10:25:16;;;;;;;4.45;0.85;;;;;;;10.07;53.18;98498.03;5039358;28;20067;-76
2021/03/12 10:27:45;;;;;;;3.17;0.82;;;;;;;9.60;53.45;98505.25;5053121;28;20029;-75
2021/03/12 10:30:16;;;;;;;5.88;1.08;;;;;;;10.30;52.73;98517.41;5053179;28;20029;-75
2021/03/12 10:32:49;;;;;;;6.07;1.20;;;;;;;13.04;48.02;98522.09;5054004;28;20033;-75
2021/03/12 10:35:25;;;;;;;4.70;0.75;;;;;;;13.55;46.75;98510.03;5021658;28;20051;-74
2021/03/12 10:37:53;;;;;;;5.07;0.80;;;;;;;13.11;46.40;98503.84;5046477;28;20116;-76
2021/03/12 10:40:20;;;;;;;3.80;0.70;;;;;;;12.32;48.35;98511.75;5037566;28;20025;-75
2021/03/12 10:42:46;;;;;;;4.60;0.85;;;;;;;14.44;45.43;98482.91;5052646;28;20056;-76
2021/03/12 10:45:23;;;;;;;3.53;0.63;;;;;;;13.33;46.38;98513.22;5053064;28;20437;-75
2021/03/12 10:47:57;;;;;;;3.10;0.80;;;;;;;12.54;47.52;98497.78;5051979;28;20430;-75
2021/03/12 10:50:23;;;;;;;7.55;1.35;;;;;;;11.87;48.21;98492.91;5052619;28;20029;-76
2021/03/12 10:52:49;;;;;;;2.92;0.68;;;;;;;11.68;46.89;98504.66;5053054;28;20052;-75
2021/03/12 10:55:15;;;;;;;2.65;0.63;;;;;;;10.94;49.03;98496.06;5052605;28;20471;-74
2021/03/12 10:57:45;;;;;;;6.90;0.75;;;;;;;11.66;47.77;98504.06;5050008;28;20021;-74
2021/03/12 11:00:22;;;;;;;4.47;0.70;;;;;;;12.24;45.32;98493.06;5053503;28;20021;-74
2021/03/12 11:02:48;;;;;;;3.65;0.82;;;;;;;12.19;45.91;98498.31;5053005;28;20505;-74
2021/03/12 11:05:16;;;;;;;4.07;0.60;;;;;;;12.52;44.71;98497.16;5062224;28;20017;-74
2021/03/12 11:07:41;;;;;;;2.53;0.40;;;;;;;13.53;43.51;98483.06;5067038;28;20100;-74
2021/03/12 11:10:07;;;;;;;5.22;0.73;;;;;;;13.86;43.08;98500.81;5035153;28;20550;-74
2021/03/12 11:12:40;;;;;;;2.70;0.57;;;;;;;14.69;41.97;98493.59;5060147;28;20522;-74
2021/03/12 11:15:07;;;;;;;6.72;0.73;;;;;;;14.39;41.49;98482.81;5050486;28;20065;-74
2021/03/12 11:17:32;;;;;;;5.78;1.38;;;;;;;14.30;42.44;98467.88;5048764;28;20412;-75
2021/03/12 11:19:58;;;;;;;4.70;0.90;;;;;;;13.46;43.27;98468.72;5054352;28;20078;-74
2021/03/12 11:22:23;;;;;;;2.95;0.85;;;;;;;12.39;45.45;98490.84;5034454;28;20024;-74
2021/03/12 11:24:48;;;;;;;2.75;0.55;;;;;;;12.50;45.33;98475.69;5031801;28;20582;-75
2021/03/12 11:27:15;;;;;;;3.00;0.75;;;;;;;12.88;44.72;98472.78;5048738;28;20051;-74
2021/03/12 11:29:41;;;;;;;5.05;1.10;;;;;;;12.65;45.00;98464.47;5049526;28;20039;-74
2021/03/12 11:32:08;;;;;;;6.75;2.15;;;;;;;12.13;45.40;98463.91;5050266;28;20033;-73
2021/03/12 11:34:33;;;;;;;5.32;1.13;;;;;;;11.45;45.66;98462.72;5049186;28;20051;-74
2021/03/12 11:36:59;;;;;;;2.63;0.60;;;;;;;13.70;42.53;98458.78;5031307;28;20037;-73
2021/03/12 11:39:24;;;;;;;8.35;0.70;;;;;;;13.62;42.39;98456.38;5030904;28;20017;-74
2021/03/12 11:41:49;;;;;;;2.90;0.50;;;;;;;14.17;40.49;98447.16;5048131;28;20090;-74
2021/03/12 11:44:15;;;;;;;3.08;0.80;;;;;;;15.05;40.17;98450.78;5033813;28;20490;-73
2021/03/12 11:46:40;;;;;;;4.18;0.60;;;;;;;15.32;39.27;98437.41;5030588;28;20106;-72
2021/03/12 11:49:05;;;;;;;2.20;0.50;;;;;;;14.68;40.29;98438.31;5041747;28;20033;-73